createdAt,value
2022-12-14T00:00:31.243Z,21.92
2022-12-14T00:03:02.892Z,17.17
2022-12-14T00:05:34.678Z,24.13
2022-12-14T00:08:06.348Z,23.75
2022-12-14T00:10:39.266Z,22.83
2022-12-14T00:13:14.642Z,23.08
2022-12-14T00:15:45.985Z,19.08
2022-12-14T00:18:22.318Z,25.77
2022-12-14T00:20:53.882Z,20.63
2022-12-14T00:23:25.150Z,21.05
2022-12-14T00:25:56.900Z,23.33
2022-12-14T00:28:28.754Z,23.70
2022-12-14T00:31:00.381Z,20.55
2022-12-14T00:33:32.600Z,18.70
2022-12-14T00:36:06.182Z,24.55
2022-12-14T00:38:38.049Z,16.52
2022-12-14T00:41:10.335Z,20.05
2022-12-14T00:43:41.760Z,20.40
2022-12-14T00:46:13.063Z,24.10
2022-12-14T00:48:44.710Z,19.23
2022-12-14T00:51:16.000Z,25.80
2022-12-14T00:53:47.277Z,18.65
2022-12-14T00:56:18.643Z,19.58
2022-12-14T00:58:51.794Z,17.33
2022-12-14T01:01:23.179Z,20.05
2022-12-14T01:04:14.527Z,25.67
2022-12-14T01:06:47.547Z,20.20
2022-12-14T01:09:20.089Z,19.85
2022-12-14T01:11:51.892Z,19.52
2022-12-14T01:14:23.304Z,20.15
2022-12-14T01:16:54.583Z,23.00
2022-12-14T01:19:25.887Z,24.40
2022-12-14T01:21:57.149Z,19.52
2022-12-14T01:24:28.497Z,19.00
2022-12-14T01:26:59.773Z,26.15
2022-12-14T01:29:31.292Z,18.33
2022-12-14T01:32:02.623Z,21.70
2022-12-14T01:34:33.864Z,22.02
2022-12-14T01:37:05.280Z,20.85
2022-12-14T01:39:36.576Z,18.35
2022-12-14T01:42:11.808Z,20.88
2022-12-14T01:44:43.014Z,17.27
2022-12-14T01:47:28.222Z,21.65
2022-12-14T01:50:10.461Z,20.35
2022-12-14T01:52:45.039Z,20.13
2022-12-14T01:55:24.636Z,19.05
2022-12-14T01:58:21.028Z,17.35
2022-12-14T02:00:59.313Z,21.42
2022-12-14T02:03:34.754Z,17.95
2022-12-14T02:06:26.756Z,15.25
2022-12-14T02:08:58.043Z,18.70
2022-12-14T02:11:51.710Z,15.55
2022-12-14T02:14:23.774Z,16.20
2022-12-14T02:16:56.095Z,21.17
2022-12-14T02:19:27.858Z,23.02
2022-12-14T02:22:29.199Z,16.38
2022-12-14T02:25:23.294Z,19.75
2022-12-14T02:28:32.389Z,18.83
2022-12-14T02:31:22.204Z,21.00
2022-12-14T02:33:59.275Z,15.10
2022-12-14T02:36:42.165Z,17.80
2022-12-14T02:39:39.913Z,15.38
2022-12-14T02:42:19.713Z,19.83
2022-12-14T02:45:07.126Z,17.80
2022-12-14T02:47:50.083Z,20.40
2022-12-14T02:50:57.868Z,14.82
2022-12-14T02:56:09.231Z,14.38
2022-12-14T02:58:44.124Z,16.00
2022-12-14T03:01:19.169Z,13.35
2022-12-14T03:03:51.013Z,20.48
2022-12-14T03:06:27.645Z,16.85
2022-12-14T03:09:08.605Z,15.95
2022-12-14T03:12:10.005Z,15.00
2022-12-14T03:14:48.004Z,17.55
2022-12-14T03:17:27.639Z,15.60
2022-12-14T03:20:11.198Z,19.13
2022-12-14T03:22:50.734Z,16.45
2022-12-14T03:25:30.851Z,14.25
2022-12-14T03:28:13.057Z,18.90
2022-12-14T03:31:00.600Z,16.35
2022-12-14T03:33:35.500Z,15.88
2022-12-14T03:36:14.834Z,16.08
2022-12-14T03:38:50.575Z,18.23
2022-12-14T03:41:27.884Z,15.60
2022-12-14T03:44:49.044Z,15.45
2022-12-14T03:47:30.109Z,12.52
2022-12-14T03:50:11.303Z,25.98
2022-12-14T03:53:04.368Z,18.58
2022-12-14T03:55:38.918Z,16.98
2022-12-14T03:58:57.016Z,18.05
2022-12-14T04:01:49.450Z,14.68
2022-12-14T04:04:42.325Z,12.60
2022-12-14T04:07:37.844Z,17.50
2022-12-14T04:10:35.650Z,15.73
2022-12-14T04:13:35.365Z,15.23
2022-12-14T04:16:31.267Z,12.80
2022-12-14T04:19:09.816Z,14.40
2022-12-14T04:21:47.867Z,15.95
2022-12-14T04:24:44.094Z,17.63
2022-12-14T04:27:18.581Z,13.10
2022-12-14T04:29:58.970Z,13.07
2022-12-14T04:32:38.022Z,15.75
2022-12-14T04:35:14.409Z,14.13
2022-12-14T04:40:25.963Z,12.00
2022-12-14T04:43:05.596Z,14.43
2022-12-14T04:45:44.080Z,17.17
2022-12-14T04:48:36.446Z,16.88
2022-12-14T04:51:12.707Z,14.48
2022-12-14T04:56:17.319Z,12.85
2022-12-14T04:58:48.930Z,15.70
2022-12-14T05:01:35.507Z,12.90
2022-12-14T05:04:33.615Z,14.63
2022-12-14T05:07:17.176Z,12.52
2022-12-14T05:09:55.568Z,16.75
2022-12-14T05:13:03.267Z,21.23
2022-12-14T05:15:40.905Z,14.30
2022-12-14T05:18:12.940Z,14.60
2022-12-14T05:20:46.533Z,13.30
2022-12-14T05:23:18.168Z,13.30
2022-12-14T05:25:49.523Z,15.98
2022-12-14T05:28:20.772Z,16.75
2022-12-14T05:30:52.085Z,14.80
2022-12-14T05:33:25.139Z,13.88
2022-12-14T05:35:56.625Z,13.50
2022-12-14T05:38:27.878Z,17.33
2022-12-14T05:40:59.124Z,11.70
2022-12-14T05:43:30.732Z,18.05
2022-12-14T05:46:04.772Z,14.75
2022-12-14T05:48:36.082Z,17.10
2022-12-14T05:51:13.414Z,14.55
2022-12-14T05:53:44.739Z,12.75
2022-12-14T05:56:16.044Z,12.23
2022-12-14T05:58:50.260Z,12.80
2022-12-14T06:01:21.687Z,17.00
2022-12-14T06:03:53.376Z,18.45
2022-12-14T06:06:24.756Z,13.27
2022-12-14T06:08:56.081Z,20.15
2022-12-14T06:11:27.331Z,15.05
2022-12-14T06:13:58.688Z,16.15
2022-12-14T06:16:30.014Z,18.50
2022-12-14T06:19:03.431Z,17.63
2022-12-14T06:21:37.000Z,13.50
2022-12-14T06:24:10.672Z,14.13
2022-12-14T06:26:42.325Z,17.38
2022-12-14T06:29:17.734Z,15.02
2022-12-14T06:31:49.437Z,14.43
2022-12-14T06:34:24.943Z,15.05
2022-12-14T06:36:59.691Z,9.05
2022-12-14T06:39:31.079Z,15.05
2022-12-14T06:42:02.643Z,9.75
2022-12-14T06:44:34.021Z,16.73
2022-12-14T06:47:05.403Z,18.58
2022-12-14T06:49:36.664Z,16.48
2022-12-14T06:52:07.916Z,13.80
2022-12-14T06:54:39.166Z,13.57
2022-12-14T06:57:10.405Z,13.02
2022-12-14T06:59:41.652Z,13.75
2022-12-14T07:02:13.080Z,13.38
2022-12-14T07:04:44.429Z,19.73
2022-12-14T07:07:15.694Z,15.88
2022-12-14T07:09:46.956Z,13.38
2022-12-14T07:12:18.190Z,15.15
2022-12-14T07:14:49.451Z,13.75
2022-12-14T07:17:21.590Z,12.45
2022-12-14T07:19:53.261Z,12.65
2022-12-14T07:22:24.515Z,13.63
2022-12-14T07:24:55.756Z,17.90
2022-12-14T07:27:27.104Z,12.35
2022-12-14T07:29:58.377Z,14.52
2022-12-14T07:32:29.772Z,12.45
2022-12-14T07:35:01.045Z,14.05
2022-12-14T07:37:32.737Z,18.30
2022-12-14T07:40:04.539Z,17.58
2022-12-14T07:42:35.789Z,15.23
2022-12-14T07:45:07.411Z,18.77
2022-12-14T07:47:38.662Z,16.88
2022-12-14T07:50:10.503Z,19.25
2022-12-14T07:52:41.753Z,17.10
2022-12-14T07:55:13.029Z,13.85
2022-12-14T07:57:44.356Z,18.00
2022-12-14T08:00:16.861Z,20.45
2022-12-14T08:02:48.169Z,16.77
2022-12-14T08:05:19.450Z,19.73
2022-12-14T08:07:50.701Z,21.92
2022-12-14T08:10:21.944Z,21.33
2022-12-14T08:12:53.199Z,19.95
2022-12-14T08:15:24.436Z,17.88
2022-12-14T08:17:55.717Z,22.73
2022-12-14T08:20:26.987Z,21.55
2022-12-14T08:22:58.401Z,20.00
2022-12-14T08:25:29.710Z,17.67
2022-12-14T08:28:00.974Z,23.38
2022-12-14T08:30:32.232Z,19.83
2022-12-14T08:33:03.496Z,15.65
2022-12-14T08:35:35.670Z,16.23
2022-12-14T08:38:06.980Z,20.23
2022-12-14T08:40:39.640Z,21.25
2022-12-14T08:43:10.946Z,21.08
2022-12-14T08:45:42.197Z,20.40
2022-12-14T08:48:13.451Z,26.83
2022-12-14T08:50:44.723Z,16.75
2022-12-14T08:55:52.284Z,20.30
2022-12-14T08:58:23.541Z,20.63
2022-12-14T09:01:03.270Z,19.17
2022-12-14T09:03:34.978Z,20.42
2022-12-14T09:06:09.217Z,16.35
2022-12-14T09:08:40.929Z,20.77
2022-12-14T09:11:14.780Z,19.80
2022-12-14T09:13:46.612Z,15.90
2022-12-14T09:16:19.826Z,17.50
2022-12-14T09:18:51.099Z,25.35
2022-12-14T09:21:22.493Z,21.85
2022-12-14T09:23:59.036Z,16.85
2022-12-14T09:26:31.065Z,17.77
2022-12-14T09:29:02.326Z,20.27
2022-12-14T09:31:33.669Z,20.33
2022-12-14T09:34:04.939Z,20.15
2022-12-14T09:36:36.968Z,13.88
2022-12-14T09:39:08.289Z,18.27
2022-12-14T09:42:21.209Z,19.25
2022-12-14T09:44:57.785Z,22.08
2022-12-14T09:47:37.935Z,18.27
2022-12-14T09:50:21.123Z,17.38
2022-12-14T09:53:05.107Z,14.65
2022-12-14T09:55:44.716Z,20.70
2022-12-14T09:58:29.028Z,16.60
2022-12-14T10:01:22.406Z,19.02
2022-12-14T10:04:02.767Z,13.35
2022-12-14T10:06:44.560Z,16.80
2022-12-14T10:09:25.218Z,15.68
2022-12-14T10:12:19.705Z,15.05
2022-12-14T10:15:03.960Z,14.95
2022-12-14T10:18:05.246Z,17.92
2022-12-14T10:20:52.117Z,15.02
2022-12-14T10:26:07.524Z,16.90
2022-12-14T10:29:01.008Z,14.57
2022-12-14T10:31:44.716Z,14.02
2022-12-14T10:34:24.344Z,18.95
2022-12-14T10:37:36.420Z,15.68
2022-12-14T10:40:16.414Z,14.27
2022-12-14T10:43:24.737Z,12.55
2022-12-14T10:46:13.773Z,15.98
2022-12-14T10:49:20.311Z,12.75
2022-12-14T10:51:57.407Z,15.88
2022-12-14T10:54:33.882Z,18.30
2022-12-14T10:57:05.572Z,12.80
2022-12-14T10:59:42.363Z,12.33
2022-12-14T11:02:24.410Z,14.82
2022-12-14T11:05:11.806Z,15.37
2022-12-14T11:07:45.677Z,18.93
2022-12-14T11:10:21.578Z,17.07
2022-12-14T11:13:04.936Z,14.93
2022-12-14T11:15:39.401Z,16.33
2022-12-14T11:18:16.826Z,13.87
2022-12-14T11:20:57.227Z,11.30
2022-12-14T11:23:36.378Z,13.53
2022-12-14T11:26:26.665Z,16.33
2022-12-14T11:29:00.449Z,14.77
2022-12-14T11:31:42.964Z,12.67
2022-12-14T11:34:29.765Z,12.07
2022-12-14T11:37:27.633Z,14.93
2022-12-14T11:40:01.374Z,16.43
2022-12-14T11:42:33.618Z,13.43
2022-12-14T11:45:26.585Z,12.77
2022-12-14T11:48:13.097Z,16.43
2022-12-14T11:50:46.749Z,15.07
2022-12-14T11:53:20.237Z,16.40
2022-12-14T11:56:00.181Z,17.47
2022-12-14T11:58:39.304Z,21.63
2022-12-14T12:01:16.593Z,17.27
2022-12-14T12:03:51.228Z,15.23
2022-12-14T12:06:25.718Z,15.33
2022-12-14T12:09:02.552Z,17.23
2022-12-14T12:11:34.946Z,18.10
2022-12-14T12:14:34.702Z,14.33
2022-12-14T12:17:20.119Z,12.00
2022-12-14T12:19:52.218Z,14.07
2022-12-14T12:22:23.689Z,16.63
2022-12-14T12:28:14.505Z,14.77
2022-12-14T12:30:50.834Z,12.07
2022-12-14T12:36:03.624Z,10.50
2022-12-14T12:38:55.611Z,13.90
2022-12-14T12:41:37.933Z,9.37
2022-12-14T12:44:21.243Z,15.33
2022-12-14T12:47:37.019Z,12.33
2022-12-14T12:50:19.432Z,8.67
2022-12-14T12:53:06.040Z,9.50
2022-12-14T12:56:04.253Z,7.95
2022-12-14T12:58:36.951Z,7.37
2022-12-14T13:01:37.637Z,6.23
2022-12-14T13:04:15.461Z,11.40
2022-12-14T13:07:05.055Z,10.47
2022-12-14T13:10:26.024Z,11.40
2022-12-14T13:13:09.499Z,12.87
2022-12-14T13:15:48.683Z,11.10
2022-12-14T13:18:59.562Z,14.03
2022-12-14T13:21:38.287Z,13.97
2022-12-14T13:24:17.524Z,11.40
2022-12-14T13:27:17.286Z,10.33
2022-12-14T13:30:01.481Z,9.70
2022-12-14T13:32:57.470Z,15.23
2022-12-14T13:35:53.471Z,13.77
2022-12-14T13:38:56.757Z,14.67
2022-12-14T13:41:39.672Z,13.13
2022-12-14T13:44:38.634Z,13.67
2022-12-14T13:47:26.153Z,13.60
2022-12-14T13:52:58.799Z,12.80
2022-12-14T13:55:34.201Z,10.10
2022-12-14T13:58:21.752Z,13.03
2022-12-14T14:01:16.209Z,9.93
2022-12-14T14:03:52.353Z,12.67
2022-12-14T14:06:39.134Z,9.30
2022-12-14T14:09:28.497Z,9.73
2022-12-14T14:12:30.962Z,16.33
2022-12-14T14:15:24.190Z,10.37
2022-12-14T14:18:06.764Z,14.70
2022-12-14T14:20:41.650Z,10.90
2022-12-14T14:23:15.968Z,13.80
2022-12-14T14:25:51.785Z,10.77
2022-12-14T14:28:29.880Z,14.45
2022-12-14T14:31:01.288Z,19.63
2022-12-14T14:33:47.362Z,16.10
2022-12-14T14:39:55.738Z,10.95
2022-12-14T14:42:24.436Z,10.33
2022-12-14T14:44:59.618Z,13.47
2022-12-14T14:47:39.704Z,13.03
2022-12-14T14:50:14.104Z,12.53
2022-12-14T14:52:58.569Z,17.23
2022-12-14T14:58:31.944Z,13.23
2022-12-14T15:01:06.770Z,14.47
2022-12-14T15:03:48.854Z,12.07
2022-12-14T15:06:33.223Z,13.57
2022-12-14T15:09:23.835Z,12.20
2022-12-14T15:12:01.142Z,11.43
2022-12-14T15:14:43.322Z,14.60
2022-12-14T15:17:22.560Z,14.77
2022-12-14T15:19:55.565Z,12.63
2022-12-14T15:22:29.684Z,23.23
2022-12-14T15:25:02.132Z,21.33
2022-12-14T15:27:35.887Z,18.03
2022-12-14T15:30:10.116Z,18.33
2022-12-14T15:32:47.986Z,13.57
2022-12-14T15:35:25.308Z,17.33
2022-12-14T15:38:00.928Z,20.20
2022-12-14T15:40:34.481Z,17.10
2022-12-14T15:43:18.315Z,16.17
2022-12-14T15:45:55.981Z,13.13
2022-12-14T15:48:34.960Z,27.55
2022-12-14T15:51:10.867Z,46.08
2022-12-14T15:53:54.491Z,17.73
2022-12-14T15:56:34.807Z,18.35
2022-12-14T15:59:18.407Z,23.50
2022-12-14T16:02:00.067Z,25.48
2022-12-14T16:04:37.052Z,18.42
2022-12-14T16:07:21.060Z,25.60
2022-12-14T16:09:56.854Z,21.17
2022-12-14T16:12:44.189Z,16.95
2022-12-14T16:15:25.884Z,18.08
2022-12-14T16:18:02.300Z,25.10
2022-12-14T16:20:37.132Z,20.98
2022-12-14T16:23:14.264Z,18.63
2022-12-14T16:25:56.456Z,19.95
2022-12-14T16:28:36.039Z,23.20
2022-12-14T16:31:13.215Z,27.80
2022-12-14T16:33:44.996Z,21.15
2022-12-14T16:36:25.459Z,27.63
2022-12-14T16:39:00.532Z,26.27
2022-12-14T16:41:41.969Z,21.35
2022-12-14T16:44:29.245Z,21.75
2022-12-14T16:47:00.448Z,24.67
2022-12-14T16:49:33.027Z,22.25
2022-12-14T16:56:06.217Z,18.30
2022-12-14T16:58:37.724Z,23.02
2022-12-14T17:01:09.521Z,27.02
2022-12-14T17:03:41.058Z,24.98
2022-12-14T17:06:22.675Z,17.95
2022-12-14T17:08:54.105Z,19.83
2022-12-14T17:11:29.966Z,21.52
2022-12-14T17:14:01.410Z,28.63
2022-12-14T17:16:33.260Z,32.72
2022-12-14T17:19:05.987Z,27.40
2022-12-14T17:21:37.413Z,37.05
2022-12-14T17:24:15.950Z,45.63
2022-12-14T17:26:48.205Z,48.05
2022-12-14T17:29:24.148Z,46.47
2022-12-14T17:31:57.797Z,52.92
2022-12-14T17:34:29.956Z,41.35
2022-12-14T17:37:01.226Z,43.75
2022-12-14T17:39:35.560Z,27.95
2022-12-14T17:42:11.297Z,31.23
2022-12-14T17:44:46.328Z,29.45
2022-12-14T17:47:17.627Z,28.58
2022-12-14T17:49:48.886Z,22.23
2022-12-14T17:52:26.679Z,33.75
2022-12-14T17:54:59.001Z,24.65
2022-12-14T17:57:30.580Z,32.80
2022-12-14T18:00:20.776Z,36.63
2022-12-14T18:02:52.200Z,24.63
2022-12-14T18:05:23.635Z,33.80
2022-12-14T18:07:54.888Z,28.27
2022-12-14T18:10:27.139Z,25.45
2022-12-14T18:12:58.630Z,16.15
2022-12-14T18:15:39.354Z,38.60
2022-12-14T18:18:10.624Z,45.50
2022-12-14T18:20:44.768Z,35.30
2022-12-14T18:23:21.716Z,30.33
2022-12-14T18:25:55.514Z,25.50
2022-12-14T18:28:26.862Z,30.52
2022-12-14T18:31:13.227Z,37.70
2022-12-14T18:33:45.486Z,30.20
2022-12-14T18:36:19.735Z,33.70
2022-12-14T18:38:51.948Z,31.35
2022-12-14T18:41:26.389Z,46.17
2022-12-14T18:44:00.446Z,49.50
2022-12-14T18:46:31.876Z,51.38
2022-12-14T18:49:03.210Z,44.33
2022-12-14T18:51:34.471Z,46.10
2022-12-14T18:54:05.846Z,49.17
2022-12-14T18:56:37.281Z,39.45
2022-12-14T18:59:08.687Z,52.05
2022-12-14T19:01:40.188Z,38.97
2022-12-14T19:04:11.595Z,46.78
2022-12-14T19:06:45.065Z,63.85
2022-12-14T19:09:16.750Z,55.67
2022-12-14T19:11:48.023Z,43.22
2022-12-14T19:14:19.386Z,53.55
2022-12-14T19:16:51.677Z,51.90
2022-12-14T19:19:25.711Z,31.88
2022-12-14T19:21:58.970Z,30.20
2022-12-14T19:24:30.224Z,39.50
2022-12-14T19:27:01.628Z,43.30
2022-12-14T19:29:33.041Z,30.88
2022-12-14T19:32:05.875Z,33.70
2022-12-14T19:34:37.379Z,40.85
2022-12-14T19:37:08.803Z,33.95
2022-12-14T19:39:40.225Z,34.78
2022-12-14T19:42:11.621Z,45.25
2022-12-14T19:44:43.042Z,47.20
2022-12-14T19:47:14.729Z,49.40
2022-12-14T19:49:46.112Z,40.25
2022-12-14T19:52:17.380Z,43.08
2022-12-14T19:54:48.651Z,47.95
2022-12-14T19:57:19.943Z,44.13
2022-12-14T19:59:51.294Z,44.15
2022-12-14T20:02:22.692Z,39.78
2022-12-14T20:04:54.111Z,37.47
2022-12-14T20:07:25.459Z,32.15
2022-12-14T20:09:56.713Z,30.90
2022-12-14T20:12:31.855Z,34.03
2022-12-14T20:15:04.043Z,41.13
2022-12-14T20:17:35.364Z,34.85
2022-12-14T20:20:07.329Z,34.03
2022-12-14T20:22:38.617Z,25.30
2022-12-14T20:25:10.206Z,18.60
2022-12-14T20:27:41.561Z,21.77
2022-12-14T20:30:12.986Z,23.95
2022-12-14T20:32:44.434Z,18.30
2022-12-14T20:35:20.712Z,13.27
2022-12-14T20:37:55.758Z,15.85
2022-12-14T20:40:27.059Z,11.73
2022-12-14T20:42:58.339Z,13.38
2022-12-14T20:45:29.644Z,9.68
2022-12-14T20:48:01.084Z,15.27
2022-12-14T20:50:32.629Z,14.25
2022-12-14T20:53:04.557Z,13.32
2022-12-14T20:55:36.126Z,19.00
2022-12-14T20:58:07.445Z,17.48
2022-12-14T21:00:38.809Z,24.25
2022-12-14T21:03:10.341Z,28.55
2022-12-14T21:05:42.028Z,25.67
2022-12-14T21:08:15.534Z,25.98
2022-12-14T21:10:46.810Z,22.50
2022-12-14T21:13:18.197Z,21.08
2022-12-14T21:15:49.475Z,16.52
2022-12-14T21:18:20.817Z,15.15
2022-12-14T21:20:52.088Z,15.00
2022-12-14T21:23:23.371Z,17.40
2022-12-14T21:25:54.641Z,20.60
2022-12-14T21:28:30.467Z,18.98
2022-12-14T21:31:05.318Z,17.80
2022-12-14T21:33:36.595Z,22.38
2022-12-14T21:36:08.634Z,19.58
2022-12-14T21:38:39.917Z,22.17
2022-12-14T21:41:30.217Z,18.27
2022-12-14T21:44:01.504Z,22.25
2022-12-14T21:46:33.226Z,22.73
2022-12-14T21:49:06.593Z,20.63
2022-12-14T21:51:38.282Z,20.48
2022-12-14T21:54:16.324Z,18.92
2022-12-14T21:57:05.966Z,21.63
2022-12-14T21:59:39.673Z,21.42
2022-12-14T22:02:17.246Z,20.95
2022-12-14T22:04:49.680Z,24.02
2022-12-14T22:07:22.223Z,18.20
2022-12-14T22:09:53.509Z,18.08
2022-12-14T22:12:25.458Z,19.15
2022-12-14T22:14:56.732Z,22.83
2022-12-14T22:17:28.019Z,22.92
2022-12-14T22:19:59.394Z,18.67
2022-12-14T22:22:30.727Z,21.65
2022-12-14T22:25:02.171Z,33.58
2022-12-14T22:27:33.559Z,21.65
2022-12-14T22:30:05.488Z,21.45
2022-12-14T22:32:36.737Z,26.65
2022-12-14T22:35:09.392Z,24.80
2022-12-14T22:37:40.641Z,23.98
2022-12-14T22:40:12.378Z,20.58
2022-12-14T22:42:43.727Z,23.77
2022-12-14T22:45:14.993Z,22.88
2022-12-14T22:47:46.296Z,22.05
2022-12-14T22:50:17.866Z,22.00
2022-12-14T22:52:49.665Z,20.33
2022-12-14T22:55:21.356Z,18.60
2022-12-14T22:57:53.958Z,21.10
2022-12-14T23:00:25.245Z,20.00
2022-12-14T23:02:56.667Z,22.05
2022-12-14T23:05:28.078Z,27.95
2022-12-14T23:07:59.316Z,17.88
2022-12-14T23:10:49.888Z,19.50
2022-12-14T23:13:39.806Z,19.83
2022-12-14T23:16:29.978Z,20.20
2022-12-14T23:19:20.133Z,20.50
2022-12-14T23:22:09.854Z,20.73
2022-12-14T23:24:59.633Z,23.25
2022-12-14T23:27:49.879Z,14.38
2022-12-14T23:30:39.988Z,18.33
2022-12-14T23:33:30.274Z,19.38
2022-12-14T23:36:20.095Z,17.05
2022-12-14T23:39:09.778Z,21.60
2022-12-14T23:41:59.625Z,21.40
2022-12-14T23:44:49.717Z,18.85
2022-12-14T23:47:39.672Z,21.20
2022-12-14T23:50:30.106Z,17.92
2022-12-14T23:53:27.634Z,17.80
2022-12-14T23:56:19.052Z,14.57
2022-12-14T23:59:13.340Z,13.07
